Cordoba, Spain
Current Conditions -  °F | °C
As of 11:00 AM on Saturday 25 Oct 2014 (Local Time) from LEBA Reporting Station
Clear Clear  
Wind Chill: 64°   Ceiling: Unl
Heat Index: 64°   Visibility: 6mi
Dew Point: 50°   Wind: 7mph
Humidity: 59%   Direction: 90°E
Pressure: 30.09"   Gusts: NA
Location:  37.89°N, 4.78°W
Report Text: LEBA 250900Z 09006KT CAVOK 18/10 Q1019
Loading
Personal Weather Stations






























Interactive Weather Map
Tropical Storm Tracking
New forecast layout! Learn more

10-Day Weather Forecast

Advertisements
Track Severe Weather on mobile